createdAt,value
2018-01-01T00:16:43.336Z,10.84
2018-01-01T00:17:43.345Z,10.75
2018-01-01T00:20:42.547Z,10.86
2018-01-01T04:25:08.412Z,7.58
2018-01-01T04:26:00.741Z,7.54
2018-01-01T04:27:00.688Z,7.57
2018-01-01T04:28:01.160Z,7.70
2018-01-01T04:29:01.167Z,7.67
2018-01-01T04:30:01.188Z,7.72
2018-01-01T04:31:01.132Z,7.70
2018-01-01T04:32:00.645Z,7.69
2018-01-01T04:33:00.547Z,7.72
2018-01-01T04:34:00.573Z,7.77
2018-01-01T04:35:01.045Z,7.79
2018-01-01T04:36:00.547Z,7.77
2018-01-01T04:37:00.369Z,7.69
2018-01-01T04:38:00.376Z,7.70
2018-01-01T04:39:00.393Z,7.70
2018-01-01T04:40:00.289Z,7.69
2018-01-01T04:41:00.431Z,7.76
2018-01-01T04:42:00.426Z,7.85
2018-01-01T04:43:00.354Z,7.76
2018-01-01T04:44:00.271Z,7.75
2018-01-01T04:45:00.054Z,7.75
2018-01-01T04:45:59.849Z,7.76
2018-01-01T04:46:59.848Z,7.88
2018-01-01T04:47:59.857Z,7.83
2018-01-01T04:48:59.815Z,7.94
2018-01-01T04:49:59.817Z,7.93
2018-01-01T04:50:59.752Z,7.90
2018-01-01T04:51:59.764Z,7.85
2018-01-01T04:52:59.743Z,7.91
2018-01-01T04:53:59.743Z,7.95
2018-01-01T04:54:59.731Z,7.97
2018-01-01T04:55:59.666Z,7.93
2018-01-01T04:56:59.637Z,7.94
2018-01-01T04:57:59.628Z,7.90
2018-01-01T04:58:59.604Z,7.76
2018-01-01T04:59:59.562Z,7.79
2018-01-01T05:00:59.552Z,7.73
2018-01-01T05:01:59.575Z,7.69
2018-01-01T05:02:59.490Z,7.56
2018-01-01T05:03:59.512Z,7.60
2018-01-01T05:04:59.480Z,7.50
2018-01-01T05:05:59.449Z,7.56
2018-01-01T05:06:59.502Z,7.57
2018-01-01T05:07:59.448Z,7.45
2018-01-01T05:08:59.418Z,7.39
2018-01-01T05:09:59.353Z,7.13
2018-01-01T05:10:59.339Z,6.88
2018-01-01T05:11:59.407Z,6.74
2018-01-01T05:13:00.273Z,6.45
2018-01-01T05:13:59.308Z,6.19
2018-01-01T05:14:59.302Z,6.16
2018-01-01T05:15:59.321Z,6.02
2018-01-01T05:16:59.216Z,5.93
2018-01-01T05:17:59.182Z,5.89
2018-01-01T05:18:59.170Z,5.65
2018-01-01T05:19:59.180Z,5.65
2018-01-01T05:20:59.165Z,5.50
2018-01-01T05:21:59.168Z,5.50
2018-01-01T05:22:59.100Z,5.41
2018-01-01T05:23:59.062Z,5.29
2018-01-01T05:24:59.028Z,5.21
2018-01-01T05:25:58.993Z,5.32
2018-01-01T05:26:59.019Z,5.25
2018-01-01T05:27:58.991Z,5.23
2018-01-01T05:28:59.008Z,5.17
2018-01-01T05:29:58.905Z,5.15
2018-01-01T05:30:58.895Z,5.08
2018-01-01T05:31:58.903Z,5.08
2018-01-01T05:32:58.853Z,5.14
2018-01-01T05:33:58.897Z,5.10
2018-01-01T05:34:58.864Z,5.04
2018-01-01T05:35:58.779Z,5.05
2018-01-01T05:36:58.765Z,5.07
2018-01-01T05:37:58.774Z,5.10
2018-01-01T05:38:58.790Z,5.10
2018-01-01T05:39:58.740Z,5.14
2018-01-01T05:40:58.733Z,5.02
2018-01-01T05:42:00.366Z,5.00
2018-01-01T05:42:58.624Z,5.02
2018-01-01T05:43:58.649Z,5.11
2018-01-01T05:44:58.609Z,5.05
2018-01-01T05:45:58.589Z,5.07
2018-01-01T05:46:58.574Z,5.00
2018-01-01T05:47:58.554Z,5.04
2018-01-01T05:48:58.547Z,5.00
2018-01-01T05:49:58.450Z,5.00
2018-01-01T05:50:58.496Z,5.02
2018-01-01T05:51:58.519Z,5.07
2018-01-01T05:52:58.474Z,5.05
2018-01-01T05:53:58.399Z,5.04
2018-01-01T05:54:58.432Z,5.07
2018-01-01T05:55:58.354Z,5.11
2018-01-01T05:56:58.380Z,5.02
2018-01-01T05:57:58.335Z,5.08
2018-01-01T05:58:58.863Z,5.02
2018-01-01T05:59:58.288Z,5.04
2018-01-01T06:00:58.221Z,5.11
2018-01-01T06:01:58.245Z,5.05
2018-01-01T06:02:58.234Z,5.08
2018-01-01T06:03:58.191Z,5.05
2018-01-01T06:04:58.171Z,5.04
2018-01-01T06:05:58.115Z,5.14
2018-01-01T06:06:58.138Z,5.15
2018-01-01T06:07:58.140Z,5.18
2018-01-01T06:08:58.038Z,5.21
2018-01-01T06:09:58.018Z,5.28
2018-01-01T06:10:58.082Z,5.23
2018-01-01T06:11:58.011Z,5.29
2018-01-01T06:12:57.977Z,5.28
2018-01-01T06:13:58.037Z,5.28
2018-01-01T06:14:57.974Z,5.26
2018-01-01T06:15:57.905Z,5.28
2018-01-01T06:16:57.847Z,5.23
2018-01-01T07:56:07.836Z,6.07
2018-01-01T08:07:41.681Z,6.45
2018-01-01T08:22:27.486Z,6.49
2018-01-01T08:26:27.030Z,6.66
2018-01-01T08:27:26.982Z,6.62
2018-01-01T08:28:26.980Z,6.67
2018-01-01T08:29:26.889Z,6.74
2018-01-01T08:30:26.566Z,6.69
2018-01-01T08:31:26.078Z,6.78
2018-01-01T08:32:26.374Z,6.77
2018-01-01T08:33:26.341Z,6.74
2018-01-01T08:34:26.041Z,6.84
2018-01-01T08:35:25.882Z,6.72
2018-01-01T08:36:26.269Z,6.82
2018-01-01T08:37:25.786Z,6.75
2018-01-01T08:38:25.759Z,6.75
2018-01-01T08:39:25.728Z,6.79
2018-01-01T08:40:25.699Z,6.89
2018-01-01T08:41:25.723Z,6.96
2018-01-01T08:42:25.660Z,6.92
2018-01-01T08:43:25.632Z,6.88
2018-01-01T08:44:25.642Z,6.78
2018-01-01T08:45:25.688Z,6.88
2018-01-01T08:46:25.668Z,6.87
2018-01-01T08:47:25.597Z,7.03
2018-01-01T08:48:25.611Z,6.92
2018-01-01T08:49:25.649Z,6.92
2018-01-01T08:50:25.518Z,6.87
2018-01-01T08:51:25.790Z,6.96
2018-01-01T08:52:25.470Z,6.87
2018-01-01T08:53:25.483Z,6.89
2018-01-01T08:54:25.446Z,6.89
2018-01-01T08:55:25.426Z,6.92
2018-01-01T08:56:25.385Z,6.88
2018-01-01T08:57:25.459Z,6.88
2018-01-01T08:58:25.316Z,6.85
2018-01-01T08:59:25.710Z,7.00
2018-01-01T09:00:25.447Z,6.92
2018-01-01T09:01:25.276Z,6.89
2018-01-01T09:02:25.261Z,6.85
2018-01-01T09:03:25.698Z,6.87
2018-01-01T09:04:25.226Z,6.87
2018-01-01T09:05:25.297Z,6.89
2018-01-01T09:06:25.224Z,6.78
2018-01-01T09:07:25.152Z,6.88
2018-01-01T09:08:25.197Z,6.77
2018-01-01T09:09:25.134Z,6.93
2018-01-01T09:10:25.128Z,6.87
2018-01-01T09:11:25.072Z,6.92
2018-01-01T09:12:25.287Z,6.93
2018-01-01T09:13:24.993Z,6.96
2018-01-01T09:14:25.023Z,7.02
2018-01-01T09:15:24.964Z,6.96
2018-01-01T09:16:24.937Z,6.99
2018-01-01T09:17:24.931Z,7.03
2018-01-01T09:18:24.900Z,7.10
2018-01-01T09:19:24.902Z,7.13
2018-01-01T09:20:24.935Z,7.10
2018-01-01T09:21:24.833Z,7.13
2018-01-01T09:22:25.542Z,7.13
2018-01-01T09:23:25.321Z,7.21
2018-01-01T09:24:24.909Z,7.28
2018-01-01T09:25:24.723Z,7.25
2018-01-01T09:26:24.764Z,7.29
2018-01-01T09:27:24.825Z,7.25
2018-01-01T09:28:24.778Z,7.38
2018-01-01T09:29:24.713Z,7.57
2018-01-01T09:30:24.663Z,7.66
2018-01-01T09:31:24.642Z,7.77
2018-01-01T09:32:24.685Z,7.88
2018-01-01T09:33:25.603Z,7.97
2018-01-01T09:34:24.589Z,8.05
2018-01-01T09:35:24.563Z,8.18
2018-01-01T09:36:24.824Z,8.34
2018-01-01T09:37:24.514Z,8.66
2018-01-01T09:38:24.521Z,9.26
2018-01-01T09:39:24.449Z,9.68
2018-01-01T09:40:24.462Z,9.86
2018-01-01T09:41:24.436Z,10.19
2018-01-01T09:44:01.912Z,10.81
2018-01-01T09:44:59.799Z,10.69
2018-01-01T09:46:00.473Z,10.56
2018-01-01T09:47:00.470Z,10.30
2018-01-01T09:48:01.958Z,10.04
2018-01-01T09:48:59.819Z,9.69
2018-01-01T09:49:59.886Z,9.46
2018-01-01T09:50:59.843Z,9.31
2018-01-01T09:52:00.338Z,9.13
2018-01-01T09:53:00.254Z,9.02
2018-01-01T09:53:59.459Z,8.97
2018-01-01T09:54:59.360Z,8.95
2018-01-01T09:56:00.046Z,8.99
2018-01-01T09:56:59.264Z,8.88
2018-01-01T09:57:59.276Z,8.85
2018-01-01T10:01:06.859Z,8.76
2018-01-01T10:02:07.100Z,8.76
2018-01-01T10:03:06.802Z,8.64
2018-01-01T10:04:06.749Z,8.58
2018-01-01T10:05:07.068Z,8.46
2018-01-01T10:07:48.010Z,8.44
2018-01-01T10:08:47.460Z,8.44
2018-01-01T10:09:47.824Z,8.49
2018-01-01T10:10:47.896Z,8.60
2018-01-01T10:11:47.846Z,8.67
2018-01-01T10:12:47.066Z,8.70
2018-01-01T10:13:47.211Z,8.85
2018-01-01T10:14:47.398Z,8.94
2018-01-01T10:15:47.249Z,8.97
2018-01-01T10:16:46.836Z,9.13
2018-01-01T10:17:46.864Z,9.13
2018-01-01T10:18:46.767Z,9.31
2018-01-01T10:19:46.964Z,9.54
2018-01-01T10:20:46.703Z,9.66
2018-01-01T10:21:46.781Z,9.62
2018-01-01T10:22:46.851Z,9.64
2018-01-01T10:23:46.691Z,9.54
2018-01-01T10:24:46.758Z,9.51
2018-01-01T10:25:47.040Z,9.48
2018-01-01T10:26:46.701Z,9.55
2018-01-01T10:27:46.667Z,9.48
2018-01-01T10:28:46.851Z,9.51
2018-01-01T10:29:46.682Z,9.50
2018-01-01T10:30:46.827Z,9.47
2018-01-01T10:31:46.600Z,9.55
2018-01-01T10:32:46.790Z,9.55
2018-01-01T10:33:46.598Z,9.48
2018-01-01T10:34:46.428Z,9.39
2018-01-01T10:35:46.549Z,9.36
2018-01-01T10:36:46.515Z,9.25
2018-01-01T10:37:46.483Z,9.23
2018-01-01T10:38:48.094Z,9.19
2018-01-01T10:39:46.465Z,9.08
2018-01-01T10:40:46.351Z,9.10
2018-01-01T10:41:46.361Z,9.11
2018-01-01T10:42:46.331Z,9.21
2018-01-01T10:43:46.277Z,9.11
2018-01-01T10:44:46.280Z,8.91
2018-01-01T10:45:46.239Z,8.82
2018-01-01T10:46:46.247Z,8.78
2018-01-01T10:47:46.222Z,8.82
2018-01-01T10:48:46.203Z,8.73
2018-01-01T10:49:46.303Z,8.70
2018-01-01T10:50:46.150Z,8.63
2018-01-01T10:51:46.102Z,8.67
2018-01-01T10:52:46.155Z,8.70
2018-01-01T10:53:46.058Z,8.84
2018-01-01T10:54:46.255Z,9.00
2018-01-01T10:55:46.059Z,9.14
2018-01-01T10:56:46.121Z,9.28
2018-01-01T10:57:46.055Z,9.26
2018-01-01T10:58:46.582Z,9.28
2018-01-01T10:59:45.930Z,9.43
2018-01-01T11:00:45.927Z,9.43
2018-01-01T11:01:45.909Z,9.48
2018-01-01T11:02:45.937Z,9.46
2018-01-01T11:03:45.935Z,9.43
2018-01-01T11:04:45.934Z,9.40
2018-01-01T11:05:45.833Z,9.46
2018-01-01T11:06:45.819Z,9.29
2018-01-01T11:07:45.828Z,9.31
2018-01-01T11:08:45.792Z,9.40
2018-01-01T11:09:45.729Z,9.41
2018-01-01T11:10:45.730Z,9.48
2018-01-01T11:11:45.726Z,9.62
2018-01-01T11:12:45.713Z,9.69
2018-01-01T11:13:46.527Z,10.01
2018-01-01T11:14:45.645Z,10.09
2018-01-01T11:15:45.649Z,10.09
2018-01-01T11:16:45.687Z,10.05
2018-01-01T11:17:45.565Z,10.01
2018-01-01T11:18:45.592Z,10.13
2018-01-01T11:19:46.275Z,10.33
2018-01-01T11:20:45.527Z,10.33
2018-01-01T11:21:45.615Z,10.33
2018-01-01T11:22:45.622Z,10.30
2018-01-01T11:23:45.451Z,10.30
2018-01-01T11:24:45.491Z,10.33
2018-01-01T11:25:47.639Z,10.26
2018-01-01T11:26:46.986Z,10.13
2018-01-01T11:27:45.614Z,10.02
2018-01-01T11:28:45.680Z,9.92
2018-01-01T11:29:45.468Z,9.92
2018-01-01T11:30:45.381Z,9.91
2018-01-01T11:31:45.292Z,9.94
2018-01-01T11:32:45.252Z,9.98
2018-01-01T11:33:45.280Z,9.99
2018-01-01T11:34:46.101Z,9.98
2018-01-01T11:35:45.204Z,10.04
2018-01-01T11:36:45.323Z,10.16
2018-01-01T11:37:45.209Z,10.38
2018-01-01T11:38:45.136Z,10.28
2018-01-01T11:39:45.299Z,10.10
2018-01-01T11:40:45.259Z,10.02
2018-01-01T11:41:45.103Z,9.98
2018-01-01T11:42:49.163Z,9.99
2018-01-01T11:43:45.561Z,9.97
2018-01-01T11:44:45.113Z,9.80
2018-01-01T11:45:45.563Z,9.73
2018-01-01T11:46:44.994Z,9.65
2018-01-01T11:47:45.589Z,9.65
2018-01-01T11:48:45.028Z,9.69
2018-01-01T11:49:44.946Z,9.69
2018-01-01T11:50:44.920Z,9.62
2018-01-01T11:51:44.911Z,9.61
2018-01-01T11:52:44.892Z,9.51
2018-01-01T11:53:44.851Z,9.61
2018-01-01T11:54:44.842Z,9.51
2018-01-01T11:55:44.833Z,9.48
2018-01-01T11:56:44.801Z,9.39
2018-01-01T11:57:44.842Z,9.26
2018-01-01T11:58:44.775Z,9.31
2018-01-01T11:59:44.746Z,9.29
2018-01-01T12:00:44.709Z,9.43
2018-01-01T12:01:44.760Z,9.46
2018-01-01T12:02:44.707Z,9.48
2018-01-01T12:03:44.672Z,9.54
2018-01-01T12:04:47.558Z,9.55
2018-01-01T12:05:44.606Z,9.58
2018-01-01T12:06:44.670Z,9.56
2018-01-01T12:07:44.615Z,9.55
2018-01-01T12:08:44.553Z,9.50
2018-01-01T12:09:44.539Z,9.58
2018-01-01T12:10:44.568Z,9.55
2018-01-01T12:11:44.518Z,9.55
2018-01-01T12:12:44.518Z,9.64
2018-01-01T12:13:44.445Z,9.69
2018-01-01T12:14:44.438Z,9.80
2018-01-01T12:15:44.452Z,9.74
2018-01-01T12:16:44.499Z,9.61
2018-01-01T12:17:44.379Z,9.48
2018-01-01T12:18:44.485Z,9.32
2018-01-01T12:19:45.312Z,9.32
2018-01-01T12:20:44.385Z,9.29
2018-01-01T12:21:44.387Z,9.37
2018-01-01T12:22:44.309Z,9.76
2018-01-01T12:23:44.274Z,10.01
2018-01-01T12:24:44.247Z,9.98
2018-01-01T12:25:44.229Z,10.20
2018-01-01T12:26:44.242Z,10.51
2018-01-01T12:27:44.192Z,10.68
2018-01-01T12:28:44.214Z,10.68
2018-01-01T12:29:44.210Z,10.68
2018-01-01T12:30:44.146Z,10.38
2018-01-01T12:31:44.150Z,10.12
2018-01-01T12:32:44.123Z,9.95
2018-01-01T12:33:44.096Z,9.95
2018-01-01T12:34:44.749Z,9.82
2018-01-01T12:35:44.009Z,9.79
2018-01-01T12:36:44.076Z,9.66
2018-01-01T12:37:44.003Z,9.47
2018-01-01T12:38:44.011Z,9.40
2018-01-01T12:39:43.980Z,9.25
2018-01-01T12:40:43.992Z,9.48
2018-01-01T12:41:44.034Z,9.64
2018-01-01T12:42:43.903Z,10.05
2018-01-01T12:43:43.973Z,10.31
2018-01-01T12:44:43.933Z,10.40
2018-01-01T12:45:43.920Z,10.34
2018-01-01T12:46:43.854Z,10.33
2018-01-01T12:47:43.845Z,10.15
2018-01-01T12:48:43.826Z,10.15
2018-01-01T12:49:43.839Z,9.97
2018-01-01T12:50:43.760Z,9.82
2018-01-01T12:51:43.765Z,9.59
2018-01-01T12:52:43.778Z,9.47
2018-01-01T12:53:43.846Z,9.28
2018-01-01T12:54:43.686Z,9.06
2018-01-01T12:55:43.766Z,8.87
2018-01-01T12:56:43.660Z,8.78
2018-01-01T12:57:43.647Z,8.66
2018-01-01T12:58:43.704Z,8.56
2018-01-01T12:59:43.632Z,8.45
2018-01-01T13:00:43.546Z,8.33
2018-01-01T13:01:43.748Z,8.20
2018-01-01T13:02:43.542Z,8.08
2018-01-01T13:03:44.210Z,7.93
2018-01-01T13:04:43.538Z,7.77
2018-01-01T13:05:43.613Z,7.66
2018-01-01T13:06:43.447Z,7.54
2018-01-01T13:07:43.462Z,7.48
2018-01-01T13:08:43.427Z,7.39
2018-01-01T13:09:43.419Z,7.35
2018-01-01T13:10:43.379Z,7.24
2018-01-01T13:11:43.309Z,7.31
2018-01-01T13:12:43.370Z,7.31
2018-01-01T13:13:43.312Z,7.38
2018-01-01T13:14:43.281Z,7.40
2018-01-01T13:15:43.264Z,7.32
2018-01-01T13:16:43.233Z,7.32
2018-01-01T13:17:43.269Z,7.32
2018-01-01T13:18:43.246Z,7.24
2018-01-01T13:19:43.209Z,7.43
2018-01-01T13:20:43.249Z,7.73
2018-01-01T13:21:43.151Z,8.36
2018-01-01T13:22:43.173Z,8.63
2018-01-01T13:23:43.610Z,8.97
2018-01-01T13:24:43.394Z,9.13
2018-01-01T13:25:44.613Z,9.51
2018-01-01T13:26:43.081Z,9.66
2018-01-01T13:27:43.229Z,9.76
2018-01-01T13:28:43.206Z,9.69
2018-01-01T13:29:42.984Z,9.66
2018-01-01T13:30:43.067Z,9.64
2018-01-01T13:31:42.956Z,9.48
2018-01-01T13:32:43.175Z,9.32
2018-01-01T13:33:43.061Z,9.29
2018-01-01T13:34:43.001Z,9.04
2018-01-01T13:35:42.887Z,9.03
2018-01-01T13:36:42.834Z,8.89
2018-01-01T13:37:42.934Z,8.78
2018-01-01T13:38:42.800Z,8.78
2018-01-01T13:39:42.864Z,8.66
2018-01-01T13:40:42.818Z,8.61
2018-01-01T13:41:42.753Z,8.58
2018-01-01T13:42:42.867Z,8.52
2018-01-01T13:43:42.887Z,8.45
2018-01-01T13:44:42.688Z,8.49
2018-01-01T13:45:42.648Z,8.34
2018-01-01T13:46:42.706Z,8.36
2018-01-01T13:47:42.645Z,8.30
2018-01-01T13:48:42.600Z,8.27
2018-01-01T13:49:42.642Z,8.24
2018-01-01T13:50:42.574Z,8.13
2018-01-01T13:51:42.620Z,8.19
2018-01-01T13:52:42.506Z,8.13
2018-01-01T13:53:42.554Z,8.13
2018-01-01T13:54:42.524Z,8.12
2018-01-01T13:55:42.466Z,8.08
2018-01-01T13:56:42.452Z,7.95
2018-01-01T13:57:42.393Z,7.91
2018-01-01T13:58:42.364Z,7.90
2018-01-01T13:59:42.357Z,7.75
2018-01-01T14:00:42.371Z,7.70
2018-01-01T14:01:42.506Z,7.57
2018-01-01T14:02:42.571Z,7.53
2018-01-01T14:03:42.363Z,7.45
2018-01-01T14:04:42.353Z,7.36
2018-01-01T14:05:42.309Z,7.31
2018-01-01T14:06:42.314Z,7.24
2018-01-01T14:07:42.412Z,7.21
2018-01-01T14:08:42.215Z,7.18
2018-01-01T14:09:47.179Z,7.13
2018-01-01T14:10:42.148Z,7.06
2018-01-01T14:11:42.601Z,7.00
2018-01-01T14:12:42.123Z,6.92
2018-01-01T14:13:42.125Z,6.92
2018-01-01T14:14:42.086Z,6.85
2018-01-01T14:15:42.094Z,6.88
2018-01-01T14:16:42.129Z,6.81
2018-01-01T14:17:42.006Z,6.85
2018-01-01T14:18:42.006Z,6.78
2018-01-01T14:19:42.057Z,6.69
2018-01-01T14:20:42.044Z,6.74
2018-01-01T14:21:42.017Z,6.77
2018-01-01T14:22:41.962Z,6.81
2018-01-01T14:23:41.909Z,6.69
2018-01-01T14:24:41.927Z,6.69
2018-01-01T14:25:41.810Z,6.74
2018-01-01T14:26:41.817Z,6.70
2018-01-01T14:27:41.789Z,6.75
2018-01-01T14:28:41.803Z,6.75
2018-01-01T14:29:41.812Z,6.75
2018-01-01T14:30:41.784Z,6.78
2018-01-01T14:31:41.711Z,6.77
2018-01-01T14:32:41.708Z,6.74
2018-01-01T14:33:41.714Z,6.75
2018-01-01T14:34:41.719Z,6.74
2018-01-01T14:35:41.777Z,6.67
2018-01-01T14:36:41.597Z,6.66
2018-01-01T14:37:41.651Z,6.60
2018-01-01T14:38:41.640Z,6.69
2018-01-01T14:39:41.546Z,6.72
2018-01-01T14:40:41.513Z,6.67
2018-01-01T14:41:41.480Z,6.75
2018-01-01T14:42:41.517Z,6.75
2018-01-01T14:43:41.486Z,6.69
2018-01-01T14:44:41.467Z,6.74
2018-01-01T14:45:41.431Z,6.70
2018-01-01T14:46:41.558Z,6.63
2018-01-01T14:47:41.709Z,6.69
2018-01-01T14:48:41.397Z,6.66
2018-01-01T14:49:41.434Z,6.64
2018-01-01T14:50:41.429Z,6.64
2018-01-01T14:51:41.264Z,6.63
2018-01-01T14:52:41.831Z,6.69
2018-01-01T14:53:41.276Z,6.60
2018-01-01T14:54:41.217Z,6.63
2018-01-01T14:55:41.184Z,6.67
2018-01-01T14:56:41.199Z,6.60
2018-01-01T14:57:41.261Z,6.70
2018-01-01T14:58:41.318Z,6.57
2018-01-01T14:59:41.102Z,6.64
2018-01-01T15:00:41.174Z,6.62
2018-01-01T15:01:41.105Z,6.59
2018-01-01T15:02:41.035Z,6.57
2018-01-01T15:03:41.076Z,6.60
2018-01-01T15:04:41.121Z,6.70
2018-01-01T15:05:41.103Z,6.63
2018-01-01T15:06:41.034Z,6.63
2018-01-01T15:07:40.921Z,6.67
2018-01-01T15:08:41.095Z,6.70
2018-01-01T15:09:40.935Z,6.75
2018-01-01T15:10:40.935Z,6.70
2018-01-01T15:11:40.851Z,6.66
2018-01-01T15:12:41.053Z,6.74
2018-01-01T15:13:40.963Z,6.72
2018-01-01T15:15:01.846Z,6.69
2018-01-01T15:15:42.362Z,6.69
2018-01-01T15:16:40.868Z,6.66
2018-01-01T15:17:41.244Z,6.77
2018-01-01T15:18:40.858Z,6.64
2018-01-01T15:19:40.743Z,6.72
2018-01-01T15:20:40.777Z,6.72
2018-01-01T15:21:40.776Z,6.75
2018-01-01T15:22:41.680Z,6.77
2018-01-01T16:06:34.832Z,6.62
2018-01-01T16:17:39.789Z,6.60
2018-01-01T16:18:31.458Z,6.75
2018-01-01T16:19:32.590Z,6.74
2018-01-01T16:22:10.847Z,6.66
2018-01-01T16:23:10.817Z,6.69
2018-01-01T16:24:10.856Z,6.70
2018-01-01T16:25:10.860Z,6.67
2018-01-01T16:26:10.579Z,6.70
2018-01-01T16:27:11.170Z,6.62
2018-01-01T16:28:10.451Z,6.77
2018-01-01T16:29:10.426Z,6.72
2018-01-01T16:30:10.421Z,6.69
2018-01-01T16:31:10.369Z,6.70
2018-01-01T16:32:10.327Z,6.66
2018-01-01T16:33:10.513Z,6.63
2018-01-01T16:34:10.280Z,6.74
2018-01-01T16:35:10.288Z,6.63
2018-01-01T22:26:14.921Z,5.33
2018-01-01T22:27:07.752Z,5.23
2018-01-01T22:28:07.262Z,5.29
2018-01-01T22:29:07.762Z,5.32
2018-01-01T22:30:07.548Z,5.33
2018-01-01T22:31:07.354Z,5.33
2018-01-01T22:32:06.877Z,5.44
2018-01-01T22:33:07.836Z,5.44
2018-01-01T22:34:19.046Z,5.46
